createdAt,value
2023-05-01T00:02:12.365Z,4.80
2023-05-01T00:04:39.458Z,7.00
2023-05-01T00:07:06.838Z,7.80
2023-05-01T00:09:34.382Z,6.90
2023-05-01T00:12:03.063Z,6.10
2023-05-01T00:14:30.425Z,8.40
2023-05-01T00:16:57.293Z,6.50
2023-05-01T00:19:24.353Z,5.60
2023-05-01T00:21:53.155Z,6.90
2023-05-01T00:24:20.531Z,5.00
2023-05-01T00:26:47.630Z,4.70
2023-05-01T00:29:14.588Z,6.20
2023-05-01T00:31:45.726Z,6.30
2023-05-01T00:34:13.008Z,4.30
2023-05-01T00:36:40.289Z,6.00
2023-05-01T00:39:07.979Z,6.10
2023-05-01T00:41:35.778Z,3.00
2023-05-01T00:44:02.663Z,3.60
2023-05-01T00:46:30.630Z,4.70
2023-05-01T00:48:58.433Z,5.00
2023-05-01T00:51:27.363Z,4.60
2023-05-01T00:53:54.160Z,4.20
2023-05-01T00:56:21.613Z,6.80
2023-05-01T00:58:51.373Z,4.00
2023-05-01T01:01:18.800Z,5.50
2023-05-01T01:03:45.962Z,4.80
2023-05-01T01:06:19.650Z,6.60
2023-05-01T01:08:53.269Z,5.20
2023-05-01T01:11:34.875Z,4.70
2023-05-01T01:14:11.876Z,6.50
2023-05-01T01:16:46.118Z,4.30
2023-05-01T01:19:28.047Z,4.40
2023-05-01T01:21:57.956Z,8.00
2023-05-01T01:24:44.721Z,4.00
2023-05-01T01:27:32.928Z,4.90
2023-05-01T01:30:47.114Z,4.50
2023-05-01T01:36:03.738Z,3.80
2023-05-01T01:38:36.750Z,5.10
2023-05-01T01:41:20.048Z,4.60
2023-05-01T01:43:50.766Z,4.80
2023-05-01T01:46:17.924Z,5.30
2023-05-01T01:48:46.768Z,4.80
2023-05-01T01:51:15.852Z,4.10
2023-05-01T01:53:45.699Z,5.20
2023-05-01T01:56:12.670Z,5.00
2023-05-01T01:58:40.203Z,6.10
2023-05-01T02:01:07.734Z,4.40
2023-05-01T02:03:35.039Z,4.80
2023-05-01T02:06:02.334Z,4.60
2023-05-01T02:08:29.670Z,2.50
2023-05-01T02:11:01.814Z,3.00
2023-05-01T02:13:29.959Z,3.40
2023-05-01T02:15:58.580Z,6.00
2023-05-01T02:18:28.917Z,3.50
2023-05-01T02:20:58.810Z,3.80
2023-05-01T02:23:27.300Z,2.60
2023-05-01T02:25:54.566Z,2.80
2023-05-01T02:28:23.313Z,4.60
2023-05-01T02:30:50.130Z,4.40
2023-05-01T02:33:17.548Z,6.30
2023-05-01T02:35:47.404Z,4.00
2023-05-01T02:38:17.010Z,2.50
2023-05-01T02:40:46.348Z,4.00
2023-05-01T02:43:14.103Z,4.80
2023-05-01T02:45:41.703Z,4.60
2023-05-01T02:48:10.209Z,1.90
2023-05-01T02:50:37.240Z,2.80
2023-05-01T02:53:04.852Z,2.90
2023-05-01T02:55:43.971Z,5.90
2023-05-01T02:58:20.476Z,2.70
2023-05-01T03:00:50.005Z,5.20
2023-05-01T03:03:18.077Z,3.30
2023-05-01T03:05:45.143Z,3.50
2023-05-01T03:08:12.885Z,5.00
2023-05-01T03:10:42.716Z,3.50
2023-05-01T03:13:11.265Z,2.30
2023-05-01T03:15:38.723Z,7.90
2023-05-01T03:18:06.595Z,4.50
2023-05-01T03:20:34.107Z,5.60
2023-05-01T03:23:02.035Z,3.40
2023-05-01T03:25:29.567Z,6.60
2023-05-01T03:27:56.497Z,3.90
2023-05-01T03:30:23.890Z,3.90
2023-05-01T03:32:51.823Z,2.70
2023-05-01T03:35:22.427Z,3.30
2023-05-01T03:37:49.656Z,3.20
2023-05-01T03:40:32.045Z,3.20
2023-05-01T03:43:17.897Z,3.10
2023-05-01T03:45:45.215Z,2.50
2023-05-01T03:48:13.822Z,4.20
2023-05-01T03:50:41.597Z,2.70
2023-05-01T03:53:08.682Z,3.10
2023-05-01T03:55:37.033Z,3.50
2023-05-01T03:58:04.149Z,5.40
2023-05-01T04:00:32.481Z,4.30
2023-05-01T04:02:59.779Z,2.10
2023-05-01T04:05:26.916Z,2.40
2023-05-01T04:07:57.385Z,4.20
2023-05-01T04:10:24.311Z,2.00
2023-05-01T04:12:55.814Z,2.40
2023-05-01T04:15:22.792Z,4.00
2023-05-01T04:17:50.268Z,4.80
2023-05-01T04:27:58.001Z,2.80
2023-05-01T04:30:25.052Z,3.20
2023-05-01T04:32:52.201Z,3.20
2023-05-01T04:35:19.461Z,2.30
2023-05-01T04:37:46.391Z,2.50
2023-05-01T04:40:13.745Z,3.00
2023-05-01T04:42:42.892Z,2.70
2023-05-01T04:45:12.231Z,6.20
2023-05-01T04:47:39.666Z,2.70
2023-05-01T04:50:07.248Z,2.10
2023-05-01T04:52:34.784Z,2.90
2023-05-01T04:55:03.766Z,3.70
2023-05-01T04:57:32.474Z,3.30
2023-05-01T05:00:00.489Z,4.70
2023-05-01T05:02:27.583Z,3.40
2023-05-01T05:04:54.689Z,4.20
2023-05-01T05:07:22.871Z,4.80
2023-05-01T05:10:28.214Z,2.40
2023-05-01T05:13:14.222Z,3.70
2023-05-01T05:15:41.415Z,2.30
2023-05-01T05:25:48.859Z,4.10
2023-05-01T05:28:16.358Z,3.40
2023-05-01T05:30:43.344Z,2.40
2023-05-01T05:33:12.398Z,2.60
2023-05-01T05:35:39.336Z,1.90
2023-05-01T05:38:06.357Z,2.00
2023-05-01T05:40:35.487Z,2.60
2023-05-01T05:43:02.693Z,2.40
2023-05-01T05:45:29.797Z,1.20
2023-05-01T05:47:57.341Z,3.10
2023-05-01T05:50:25.637Z,3.40
2023-05-01T05:52:52.898Z,2.90
2023-05-01T05:55:20.319Z,2.70
2023-05-01T05:57:59.419Z,2.50
2023-05-01T06:00:26.599Z,4.50
2023-05-01T06:02:55.255Z,2.30
2023-05-01T06:05:23.055Z,2.20
2023-05-01T06:07:50.018Z,1.50
2023-05-01T06:10:17.750Z,1.10
2023-05-01T06:12:51.148Z,2.20
2023-05-01T06:15:29.703Z,1.60
2023-05-01T06:17:57.156Z,1.10
2023-05-01T06:20:24.075Z,1.90
2023-05-01T06:22:51.223Z,2.30
2023-05-01T06:25:24.090Z,2.10
2023-05-01T06:27:51.485Z,1.20
2023-05-01T06:30:20.154Z,2.00
2023-05-01T06:32:47.469Z,1.80
2023-05-01T06:35:15.002Z,1.20
2023-05-01T06:37:42.100Z,1.60
2023-05-01T06:40:09.975Z,2.30
2023-05-01T06:42:38.292Z,1.70
2023-05-01T06:45:07.339Z,2.00
2023-05-01T06:47:34.273Z,1.40
2023-05-01T06:50:02.901Z,1.90
2023-05-01T06:52:33.979Z,1.20
2023-05-01T06:55:01.331Z,1.10
2023-05-01T06:57:28.150Z,1.50
2023-05-01T06:59:55.846Z,2.40
2023-05-01T07:02:23.046Z,1.30
2023-05-01T07:04:49.957Z,1.10
2023-05-01T07:07:16.990Z,1.10
2023-05-01T07:09:44.162Z,3.00
2023-05-01T07:12:12.417Z,1.70
2023-05-01T07:22:21.582Z,2.10
2023-05-01T07:24:48.579Z,1.50
2023-05-01T07:27:15.694Z,1.20
2023-05-01T07:29:42.805Z,2.50
2023-05-01T07:32:10.826Z,2.50
2023-05-01T07:34:37.863Z,3.80
2023-05-01T07:37:05.044Z,1.30
2023-05-01T07:39:32.803Z,1.60
2023-05-01T07:41:59.717Z,2.60
2023-05-01T07:44:26.913Z,2.30
2023-05-01T07:46:54.399Z,0.90
2023-05-01T07:49:21.473Z,1.20
2023-05-01T07:51:49.800Z,0.80
2023-05-01T07:54:17.127Z,1.80
2023-05-01T07:56:44.457Z,1.00
2023-05-01T07:59:11.326Z,1.00
2023-05-01T08:01:38.359Z,2.10
2023-05-01T08:04:05.662Z,1.10
2023-05-01T08:06:33.686Z,0.80
2023-05-01T08:09:00.722Z,1.80
2023-05-01T08:11:29.498Z,1.20
2023-05-01T08:13:56.896Z,1.60
2023-05-01T08:16:23.919Z,1.40
2023-05-01T08:18:51.020Z,2.00
2023-05-01T08:21:17.905Z,1.10
2023-05-01T08:23:44.991Z,1.30
2023-05-01T08:26:11.838Z,1.50
2023-05-01T08:28:39.010Z,3.50
2023-05-01T08:31:05.908Z,1.10
2023-05-01T08:33:34.047Z,1.00
2023-05-01T08:36:00.921Z,2.10
2023-05-01T08:38:27.769Z,2.30
2023-05-01T08:40:56.886Z,1.20
2023-05-01T08:43:24.446Z,1.30
2023-05-01T08:45:51.461Z,1.10
2023-05-01T08:48:21.194Z,1.60
2023-05-01T08:50:48.375Z,0.60
2023-05-01T08:53:15.868Z,2.30
2023-05-01T08:55:44.634Z,1.20
2023-05-01T09:00:39.499Z,3.30
2023-05-01T09:03:06.782Z,1.60
2023-05-01T09:05:34.146Z,2.50
2023-05-01T09:08:01.329Z,1.20
2023-05-01T09:10:28.174Z,1.30
2023-05-01T09:13:01.920Z,1.00
2023-05-01T09:15:29.187Z,2.10
2023-05-01T09:17:56.931Z,1.40
2023-05-01T09:20:24.204Z,4.40
2023-05-01T09:22:51.188Z,1.50
2023-05-01T09:25:19.306Z,1.10
2023-05-01T09:27:46.325Z,2.50
2023-05-01T09:30:36.283Z,1.70
2023-05-01T09:33:10.258Z,1.00
2023-05-01T09:35:54.496Z,1.30
2023-05-01T09:38:25.618Z,1.60
2023-05-01T09:40:58.042Z,1.20
2023-05-01T09:43:26.829Z,1.00
2023-05-01T09:46:05.437Z,1.40
2023-05-01T09:48:35.785Z,0.70
2023-05-01T09:51:23.302Z,0.90
2023-05-01T09:53:50.252Z,1.50
2023-05-01T09:56:18.010Z,2.10
2023-05-01T09:58:45.006Z,2.00
2023-05-01T10:01:12.265Z,0.80
2023-05-01T10:03:39.732Z,1.30
2023-05-01T10:06:07.343Z,2.20
2023-05-01T10:08:50.794Z,4.00
2023-05-01T10:11:18.118Z,0.60
2023-05-01T10:13:44.974Z,1.80
2023-05-01T10:16:29.139Z,1.00
2023-05-01T10:18:57.763Z,1.50
2023-05-01T10:21:25.650Z,0.80
2023-05-01T10:23:53.397Z,2.60
2023-05-01T10:26:20.807Z,0.50
2023-05-01T10:28:49.115Z,1.20
2023-05-01T10:31:16.803Z,1.30
2023-05-01T10:33:44.727Z,0.50
2023-05-01T10:36:24.310Z,1.00
2023-05-01T10:38:51.189Z,0.80
2023-05-01T10:41:28.375Z,1.00
2023-05-01T10:44:21.927Z,0.60
2023-05-01T10:46:49.849Z,1.00
2023-05-01T10:49:17.724Z,1.90
2023-05-01T10:52:11.143Z,2.20
2023-05-01T10:54:38.086Z,0.60
2023-05-01T10:57:05.920Z,1.10
2023-05-01T11:00:21.789Z,1.60
2023-05-01T11:02:48.764Z,1.60
2023-05-01T11:05:18.440Z,1.30
2023-05-01T11:08:13.032Z,1.60
2023-05-01T11:10:40.088Z,2.90
2023-05-01T11:13:07.279Z,2.80
2023-05-01T11:15:34.511Z,1.10
2023-05-01T11:18:02.507Z,0.50
2023-05-01T11:20:29.535Z,1.50
2023-05-01T11:22:57.367Z,1.10
2023-05-01T11:25:27.735Z,0.70
2023-05-01T11:27:56.293Z,1.30
2023-05-01T11:30:23.271Z,0.90
2023-05-01T11:32:51.228Z,1.10
2023-05-01T11:35:19.539Z,0.90
2023-05-01T11:37:46.962Z,1.00
2023-05-01T11:40:30.922Z,0.50
2023-05-01T11:43:05.091Z,2.00
2023-05-01T11:45:32.797Z,0.80
2023-05-01T11:48:02.172Z,1.20
2023-05-01T11:50:38.072Z,1.40
2023-05-01T11:53:11.764Z,0.90
2023-05-01T11:55:38.970Z,1.60
2023-05-01T11:58:06.383Z,0.80
2023-05-01T12:00:39.679Z,1.20
2023-05-01T12:03:14.261Z,1.60
2023-05-01T12:05:43.266Z,1.50
2023-05-01T12:10:43.231Z,1.70
2023-05-01T12:13:13.716Z,1.20
2023-05-01T12:15:48.353Z,0.90
2023-05-01T12:18:16.268Z,0.90
2023-05-01T12:20:47.554Z,1.80
2023-05-01T12:23:16.562Z,1.40
2023-05-01T12:25:44.999Z,1.00
2023-05-01T12:28:16.866Z,3.20
2023-05-01T12:30:45.429Z,1.00
2023-05-01T12:33:17.000Z,0.90
2023-05-01T12:35:47.814Z,0.50
2023-05-01T12:38:19.901Z,1.20
2023-05-01T12:40:57.092Z,0.90
2023-05-01T12:43:34.634Z,0.80
2023-05-01T12:46:02.042Z,2.00
2023-05-01T12:48:30.261Z,1.10
2023-05-01T12:50:57.333Z,0.70
2023-05-01T12:53:25.621Z,2.40
2023-05-01T12:55:54.331Z,1.20
2023-05-01T12:58:21.438Z,1.80
2023-05-01T13:00:53.009Z,3.60
2023-05-01T13:03:24.859Z,1.20
2023-05-01T13:05:53.256Z,1.00
2023-05-01T13:08:34.213Z,1.60
2023-05-01T13:11:04.082Z,3.10
2023-05-01T13:13:33.636Z,3.80
2023-05-01T13:16:09.455Z,1.30
2023-05-01T13:18:46.751Z,1.60
2023-05-01T13:21:16.496Z,0.60
2023-05-01T13:23:51.871Z,3.60
2023-05-01T13:26:18.730Z,1.00
2023-05-01T13:36:27.585Z,0.80
2023-05-01T13:38:56.475Z,1.70
2023-05-01T13:41:26.168Z,1.30
2023-05-01T13:43:54.246Z,0.90
2023-05-01T13:46:22.402Z,1.10
2023-05-01T13:48:49.848Z,0.80
2023-05-01T13:51:25.432Z,3.70
2023-05-01T13:53:53.677Z,1.50
2023-05-01T13:58:50.782Z,1.00
2023-05-01T14:01:20.698Z,0.80
2023-05-01T14:03:48.818Z,2.00
2023-05-01T14:06:17.667Z,2.70
2023-05-01T14:08:45.166Z,0.90
2023-05-01T14:11:12.626Z,3.10
2023-05-01T14:13:41.107Z,1.10
2023-05-01T14:16:11.655Z,0.60
2023-05-01T14:18:45.507Z,0.90
2023-05-01T14:21:16.107Z,1.00
2023-05-01T14:23:43.315Z,1.20
2023-05-01T14:26:11.569Z,1.00
2023-05-01T14:28:41.620Z,1.30
2023-05-01T14:31:08.822Z,0.70
2023-05-01T14:33:41.563Z,4.00
2023-05-01T14:36:08.373Z,1.20
2023-05-01T14:38:40.430Z,1.10
2023-05-01T14:41:10.065Z,1.30
2023-05-01T14:43:38.260Z,0.80
2023-05-01T14:46:05.301Z,1.50
2023-05-01T14:48:37.260Z,1.00
2023-05-01T14:51:04.587Z,1.00
2023-05-01T14:53:32.307Z,3.20
2023-05-01T14:56:00.908Z,1.60
2023-05-01T14:58:27.870Z,1.20
2023-05-01T15:00:55.284Z,1.10
2023-05-01T15:03:22.309Z,2.60
2023-05-01T15:05:49.471Z,1.20
2023-05-01T15:08:16.827Z,3.80
2023-05-01T15:10:45.280Z,0.60
2023-05-01T15:13:12.842Z,0.90
2023-05-01T15:15:39.822Z,0.80
2023-05-01T15:18:07.047Z,1.30
2023-05-01T15:20:33.977Z,1.30
2023-05-01T15:23:01.149Z,1.00
2023-05-01T15:25:28.342Z,1.60
2023-05-01T15:27:56.098Z,1.50
2023-05-01T15:30:23.047Z,1.80
2023-05-01T15:32:50.311Z,2.50
2023-05-01T15:35:17.677Z,1.00
2023-05-01T15:37:44.623Z,0.60
2023-05-01T15:40:11.864Z,0.90
2023-05-01T15:42:39.888Z,0.50
2023-05-01T15:45:07.497Z,1.60
2023-05-01T15:47:34.680Z,1.00
2023-05-01T15:50:01.915Z,1.70
2023-05-01T15:52:29.505Z,2.40
2023-05-01T15:54:56.506Z,0.90
2023-05-01T15:57:23.918Z,2.30
2023-05-01T15:59:54.054Z,3.20
2023-05-01T16:02:22.010Z,1.10
2023-05-01T16:04:49.574Z,2.60
2023-05-01T16:07:17.824Z,1.60
2023-05-01T16:09:45.003Z,3.40
2023-05-01T16:12:11.841Z,2.20
2023-05-01T16:14:42.228Z,0.80
2023-05-01T16:17:09.454Z,0.90
2023-05-01T16:19:39.264Z,1.50
2023-05-01T16:22:07.268Z,2.90
2023-05-01T16:24:34.868Z,0.90
2023-05-01T16:27:02.115Z,3.80
2023-05-01T16:29:29.136Z,1.50
2023-05-01T16:31:56.549Z,3.20
2023-05-01T16:34:25.592Z,2.90
2023-05-01T16:36:52.551Z,5.00
2023-05-01T16:39:21.674Z,3.70
2023-05-01T16:41:49.650Z,4.20
2023-05-01T16:44:19.938Z,2.90
2023-05-01T16:46:54.231Z,3.00
2023-05-01T16:49:25.225Z,5.20
2023-05-01T16:51:56.812Z,6.10
2023-05-01T16:54:25.215Z,3.50
2023-05-01T16:56:52.053Z,3.60
2023-05-01T16:59:19.107Z,4.50
2023-05-01T17:01:46.112Z,2.40
2023-05-01T17:04:14.231Z,2.30
2023-05-01T17:14:24.809Z,4.20
2023-05-01T17:16:52.941Z,1.50
2023-05-01T17:19:20.122Z,3.00
2023-05-01T17:21:47.308Z,3.00
2023-05-01T17:24:14.275Z,2.40
2023-05-01T17:26:41.171Z,3.50
2023-05-01T17:29:08.116Z,1.80
2023-05-01T17:31:35.622Z,2.00
2023-05-01T17:34:02.590Z,2.60
2023-05-01T17:36:30.165Z,1.60
2023-05-01T17:38:57.093Z,1.10
2023-05-01T17:41:24.833Z,2.10
2023-05-01T17:43:52.044Z,2.20
2023-05-01T17:46:20.369Z,1.80
2023-05-01T17:48:48.676Z,2.30
2023-05-01T17:51:16.066Z,5.30
2023-05-01T17:53:42.810Z,1.20
2023-05-01T17:56:09.645Z,1.70
2023-05-01T17:58:36.825Z,2.50
2023-05-01T18:01:04.746Z,2.50
2023-05-01T18:03:35.291Z,2.10
2023-05-01T18:06:02.901Z,3.20
2023-05-01T18:08:30.596Z,4.90
2023-05-01T18:10:57.392Z,3.10
2023-05-01T18:13:28.304Z,2.30
2023-05-01T18:15:56.099Z,2.10
2023-05-01T18:18:23.381Z,3.60
2023-05-01T18:20:50.897Z,2.10
2023-05-01T18:23:18.919Z,2.10
2023-05-01T18:25:46.505Z,2.20
2023-05-01T18:28:16.599Z,2.10
2023-05-01T18:30:44.870Z,4.80
2023-05-01T18:33:12.886Z,3.60
2023-05-01T18:35:42.004Z,5.30
2023-05-01T18:40:36.551Z,24.10
2023-05-01T18:43:03.675Z,32.70
2023-05-01T18:45:31.024Z,36.60
2023-05-01T18:48:00.438Z,33.90
2023-05-01T18:50:27.705Z,28.50
2023-05-01T18:52:55.152Z,28.20
2023-05-01T18:55:24.101Z,22.50
2023-05-01T19:00:21.044Z,27.40
2023-05-01T19:02:52.161Z,33.40
2023-05-01T19:05:19.873Z,28.00
2023-05-01T19:07:47.156Z,29.90
2023-05-01T19:10:14.223Z,39.00
2023-05-01T19:12:42.558Z,57.20
2023-05-01T19:15:10.080Z,53.50
2023-05-01T19:17:37.440Z,57.50
2023-05-01T19:20:05.525Z,49.00
2023-05-01T19:22:32.548Z,49.50
2023-05-01T19:25:00.329Z,64.40
2023-05-01T19:27:27.629Z,63.90
2023-05-01T19:29:54.805Z,63.40
2023-05-01T19:32:23.294Z,66.20
2023-05-01T19:34:50.590Z,72.80
2023-05-01T19:37:17.836Z,64.10
2023-05-01T19:39:45.266Z,74.40
2023-05-01T19:42:12.555Z,72.60
2023-05-01T19:44:39.630Z,68.70
2023-05-01T19:47:06.636Z,72.00
2023-05-01T19:49:34.718Z,75.20
2023-05-01T19:52:01.868Z,71.90
2023-05-01T19:54:29.029Z,75.20
2023-05-01T19:56:56.143Z,76.50
2023-05-01T19:59:23.349Z,70.60
2023-05-01T20:01:50.336Z,66.60
2023-05-01T20:04:17.514Z,70.70
2023-05-01T20:06:44.542Z,70.30
2023-05-01T20:09:11.769Z,68.30
2023-05-01T20:11:38.763Z,69.50
2023-05-01T20:14:05.619Z,67.10
2023-05-01T20:16:33.199Z,67.50
2023-05-01T20:19:00.595Z,66.40
2023-05-01T20:21:27.517Z,67.90
2023-05-01T20:23:55.086Z,68.80
2023-05-01T20:26:22.013Z,68.00
2023-05-01T20:28:49.412Z,71.10
2023-05-01T20:31:17.179Z,70.90
2023-05-01T20:33:44.629Z,67.10
2023-05-01T20:36:11.958Z,71.20
2023-05-01T20:38:41.998Z,68.40
2023-05-01T20:41:09.638Z,78.90
2023-05-01T20:43:36.474Z,69.50
2023-05-01T20:46:03.406Z,70.40
2023-05-01T20:48:32.431Z,67.40
2023-05-01T20:50:59.152Z,67.40
2023-05-01T20:53:25.883Z,73.40
2023-05-01T20:55:53.083Z,73.50
2023-05-01T20:58:19.907Z,73.90
2023-05-01T21:00:46.736Z,87.20
2023-05-01T21:03:15.532Z,86.60
2023-05-01T21:05:42.549Z,72.30
2023-05-01T21:08:09.415Z,81.10
2023-05-01T21:10:37.046Z,109.30
2023-05-01T21:13:03.948Z,117.90
2023-05-01T21:15:32.231Z,128.40
2023-05-01T21:18:00.840Z,123.30
2023-05-01T21:20:33.198Z,114.40
2023-05-01T21:23:03.056Z,129.00
2023-05-01T21:25:31.930Z,126.30
2023-05-01T21:28:02.105Z,130.60
2023-05-01T21:30:31.679Z,116.60
2023-05-01T21:32:58.687Z,119.60
2023-05-01T21:35:26.628Z,119.60
2023-05-01T21:39:19.139Z,116.20
2023-05-01T21:41:48.196Z,110.20
2023-05-01T21:44:15.604Z,115.00
2023-05-01T21:46:42.446Z,108.30
2023-05-01T21:49:12.576Z,105.60
2023-05-01T21:51:39.867Z,103.80
2023-05-01T21:54:06.811Z,100.70
2023-05-01T21:56:33.547Z,104.00
2023-05-01T21:59:01.854Z,95.90
2023-05-01T22:01:29.187Z,99.20
2023-05-01T22:03:56.223Z,95.20
2023-05-01T22:06:25.869Z,93.30
2023-05-01T22:08:53.068Z,88.30
2023-05-01T22:11:20.220Z,92.50
2023-05-01T22:13:47.087Z,90.20
2023-05-01T22:16:14.262Z,87.50
2023-05-01T22:18:41.131Z,86.20
2023-05-01T22:21:07.936Z,79.50
2023-05-01T22:23:35.414Z,79.30
2023-05-01T22:26:02.195Z,79.30
2023-05-01T22:28:29.280Z,77.60
2023-05-01T22:30:56.083Z,76.50
2023-05-01T22:33:22.937Z,72.40
2023-05-01T22:35:49.658Z,79.80
2023-05-01T22:38:16.453Z,76.90
2023-05-01T22:40:43.196Z,86.50
2023-05-01T22:43:10.177Z,71.30
2023-05-01T22:45:38.691Z,75.60
2023-05-01T22:48:06.650Z,65.80
2023-05-01T22:50:33.584Z,70.60
2023-05-01T22:53:00.774Z,78.30
2023-05-01T22:55:27.829Z,71.60
2023-05-01T22:57:54.632Z,68.40
2023-05-01T23:00:22.363Z,66.30
2023-05-01T23:02:49.168Z,59.00
2023-05-01T23:05:16.753Z,64.10
2023-05-01T23:07:44.898Z,58.50
2023-05-01T23:10:11.832Z,56.20
2023-05-01T23:12:40.585Z,61.40
2023-05-01T23:15:18.510Z,52.30
2023-05-01T23:17:45.420Z,50.00
2023-05-01T23:20:12.927Z,52.10
2023-05-01T23:22:40.499Z,53.50
2023-05-01T23:25:07.718Z,47.80
2023-05-01T23:27:40.347Z,52.00
2023-05-01T23:30:07.908Z,48.50
2023-05-01T23:32:34.954Z,47.00
2023-05-01T23:35:09.161Z,52.90
2023-05-01T23:37:36.025Z,48.60
2023-05-01T23:40:03.104Z,49.60
2023-05-01T23:42:30.153Z,46.20
2023-05-01T23:44:57.085Z,49.70
2023-05-01T23:47:23.905Z,45.10
2023-05-01T23:49:50.850Z,44.00
2023-05-01T23:52:17.624Z,48.40
2023-05-01T23:54:44.498Z,43.00
2023-05-01T23:57:11.508Z,41.10
2023-05-01T23:59:38.669Z,38.00
